createdAt,value
2023-03-18T00:00:49.199Z,18.40
2023-03-18T00:03:15.931Z,19.00
2023-03-18T00:05:42.556Z,19.40
2023-03-18T00:08:09.542Z,19.90
2023-03-18T00:10:36.157Z,19.60
2023-03-18T00:13:04.455Z,18.40
2023-03-18T00:15:31.350Z,18.40
2023-03-18T00:17:59.785Z,18.40
2023-03-18T00:20:38.505Z,18.40
2023-03-18T00:23:11.391Z,18.50
2023-03-18T00:25:38.824Z,18.40
2023-03-18T00:28:06.996Z,18.40
2023-03-18T00:30:34.896Z,20.20
2023-03-18T00:33:01.678Z,20.40
2023-03-18T00:35:30.485Z,21.00
2023-03-18T00:37:58.725Z,20.50
2023-03-18T00:40:42.871Z,20.00
2023-03-18T00:43:12.869Z,20.80
2023-03-18T00:45:40.323Z,19.60
2023-03-18T00:48:07.669Z,20.50
2023-03-18T00:50:35.313Z,20.10
2023-03-18T00:53:01.935Z,20.50
2023-03-18T00:55:28.752Z,21.50
2023-03-18T00:57:55.418Z,21.30
2023-03-18T01:00:22.155Z,21.50
2023-03-18T01:02:51.777Z,22.20
2023-03-18T01:05:18.768Z,22.50
2023-03-18T01:07:45.420Z,22.60
2023-03-18T01:10:12.823Z,23.40
2023-03-18T01:12:41.070Z,24.70
2023-03-18T01:15:10.578Z,25.50
2023-03-18T01:17:37.521Z,26.30
2023-03-18T01:20:04.377Z,26.40
2023-03-18T01:22:30.979Z,27.00
2023-03-18T01:24:58.650Z,27.00
2023-03-18T01:27:25.191Z,27.00
2023-03-18T01:29:51.785Z,27.00
2023-03-18T01:32:18.377Z,27.00
2023-03-18T01:34:44.983Z,27.00
2023-03-18T01:37:11.674Z,27.00
2023-03-18T01:39:38.319Z,27.00
2023-03-18T01:42:06.348Z,27.00
2023-03-18T01:44:32.901Z,27.00
2023-03-18T01:46:59.563Z,26.90
2023-03-18T01:49:26.167Z,26.90
2023-03-18T01:51:57.596Z,26.90
2023-03-18T01:54:25.854Z,26.90
2023-03-18T01:56:53.878Z,27.00
2023-03-18T01:59:22.446Z,26.90
2023-03-18T02:01:53.076Z,27.60
2023-03-18T02:04:21.348Z,28.10
2023-03-18T02:06:47.949Z,27.90
2023-03-18T02:09:14.669Z,28.20
2023-03-18T02:11:42.844Z,28.50
2023-03-18T02:14:10.633Z,27.80
2023-03-18T02:16:40.344Z,26.90
2023-03-18T02:19:22.496Z,26.90
2023-03-18T02:22:07.723Z,28.30
2023-03-18T02:24:55.478Z,26.80
2023-03-18T02:27:22.829Z,26.80
2023-03-18T02:29:53.220Z,28.10
2023-03-18T02:32:20.722Z,28.00
2023-03-18T02:34:49.091Z,27.80
2023-03-18T02:37:16.061Z,27.50
2023-03-18T02:39:42.697Z,27.70
2023-03-18T02:42:16.913Z,27.60
2023-03-18T02:44:45.845Z,28.10
2023-03-18T02:47:15.314Z,28.30
2023-03-18T02:49:41.891Z,28.40
2023-03-18T02:52:14.536Z,26.80
2023-03-18T02:54:41.291Z,26.90
2023-03-18T02:57:07.880Z,26.80
2023-03-18T02:59:34.573Z,26.90
2023-03-18T03:02:01.463Z,26.80
2023-03-18T03:04:28.557Z,26.90
2023-03-18T03:06:56.810Z,26.80
2023-03-18T03:09:23.399Z,26.90
2023-03-18T03:11:49.985Z,26.90
2023-03-18T03:14:16.809Z,27.40
2023-03-18T03:16:43.795Z,26.80
2023-03-18T03:19:10.464Z,26.80
2023-03-18T03:21:37.363Z,26.90
2023-03-18T03:24:04.639Z,26.80
2023-03-18T03:26:31.314Z,27.20
2023-03-18T03:28:58.377Z,27.10
2023-03-18T03:31:25.177Z,27.50
2023-03-18T03:33:52.619Z,26.70
2023-03-18T03:36:19.290Z,26.80
2023-03-18T03:38:45.881Z,26.80
2023-03-18T03:41:12.978Z,26.80
2023-03-18T03:43:40.275Z,26.80
2023-03-18T03:46:07.498Z,26.70
2023-03-18T03:48:34.107Z,26.70
2023-03-18T03:51:01.475Z,26.70
2023-03-18T03:53:28.217Z,27.20
2023-03-18T03:55:56.390Z,27.70
2023-03-18T03:58:24.537Z,28.90
2023-03-18T04:00:51.246Z,29.10
2023-03-18T04:03:18.088Z,29.50
2023-03-18T04:05:44.645Z,29.30
2023-03-18T04:08:11.386Z,28.20
2023-03-18T04:10:38.324Z,28.50
2023-03-18T04:13:05.509Z,28.80
2023-03-18T04:15:32.095Z,30.50
2023-03-18T04:18:02.146Z,31.40
2023-03-18T04:20:28.689Z,32.20
2023-03-18T04:22:55.364Z,32.90
2023-03-18T04:25:22.260Z,33.30
2023-03-18T04:27:48.867Z,34.00
2023-03-18T04:30:15.558Z,34.10
2023-03-18T04:32:42.143Z,31.30
2023-03-18T04:35:09.602Z,29.60
2023-03-18T04:37:37.436Z,29.80
2023-03-18T04:40:07.819Z,29.80
2023-03-18T04:42:34.374Z,29.20
2023-03-18T04:45:01.835Z,29.60
2023-03-18T04:47:28.406Z,30.00
2023-03-18T04:49:55.096Z,31.50
2023-03-18T04:52:21.686Z,30.90
2023-03-18T04:54:48.330Z,31.10
2023-03-18T04:57:16.566Z,32.30
2023-03-18T04:59:43.514Z,32.30
2023-03-18T05:02:10.462Z,32.80
2023-03-18T05:04:37.628Z,32.50
2023-03-18T05:07:04.198Z,32.80
2023-03-18T05:09:31.388Z,32.50
2023-03-18T05:11:58.056Z,33.20
2023-03-18T05:14:24.670Z,32.30
2023-03-18T05:16:51.601Z,32.50
2023-03-18T05:19:18.346Z,33.70
2023-03-18T05:21:45.200Z,32.90
2023-03-18T05:24:11.838Z,35.00
2023-03-18T05:26:38.765Z,35.50
2023-03-18T05:29:05.362Z,34.60
2023-03-18T05:31:32.076Z,34.10
2023-03-18T05:33:58.757Z,33.40
2023-03-18T05:36:25.414Z,33.90
2023-03-18T05:38:51.956Z,33.30
2023-03-18T05:41:18.539Z,32.60
2023-03-18T05:43:45.142Z,33.00
2023-03-18T05:46:11.933Z,34.10
2023-03-18T05:48:38.812Z,34.30
2023-03-18T05:51:05.979Z,33.30
2023-03-18T05:53:32.598Z,32.20
2023-03-18T05:55:59.874Z,31.70
2023-03-18T05:58:31.138Z,31.10
2023-03-18T06:00:58.885Z,31.20
2023-03-18T06:03:25.878Z,32.20
2023-03-18T06:05:52.948Z,31.40
2023-03-18T06:08:19.571Z,29.80
2023-03-18T06:10:46.101Z,29.90
2023-03-18T06:13:12.714Z,29.10
2023-03-18T06:15:39.496Z,28.60
2023-03-18T06:18:06.044Z,28.80
2023-03-18T06:20:33.600Z,27.30
2023-03-18T06:23:00.194Z,26.90
2023-03-18T06:25:26.840Z,26.90
2023-03-18T06:27:53.745Z,26.90
2023-03-18T06:30:20.587Z,27.10
2023-03-18T06:32:47.269Z,27.00
2023-03-18T06:35:14.680Z,26.10
2023-03-18T06:37:41.339Z,24.60
2023-03-18T06:40:09.023Z,23.00
2023-03-18T06:42:35.647Z,23.50
2023-03-18T06:45:02.341Z,22.20
2023-03-18T06:47:28.899Z,21.90
2023-03-18T06:49:56.671Z,20.70
2023-03-18T06:52:23.472Z,20.40
2023-03-18T06:54:50.512Z,18.90
2023-03-18T06:57:17.219Z,18.60
2023-03-18T06:59:43.850Z,18.70
2023-03-18T07:02:10.924Z,18.20
2023-03-18T07:04:37.695Z,16.80
2023-03-18T07:07:04.678Z,15.90
2023-03-18T07:09:31.332Z,16.90
2023-03-18T07:11:58.625Z,15.90
2023-03-18T07:14:25.311Z,15.00
2023-03-18T07:16:52.078Z,14.30
2023-03-18T07:19:18.623Z,13.70
2023-03-18T07:21:46.256Z,14.00
2023-03-18T07:24:12.924Z,13.70
2023-03-18T07:26:39.559Z,12.40
2023-03-18T07:29:06.146Z,10.10
2023-03-18T07:31:32.849Z,10.20
2023-03-18T07:33:59.451Z,10.30
2023-03-18T07:36:26.877Z,8.70
2023-03-18T07:38:53.583Z,6.70
2023-03-18T07:41:20.276Z,5.00
2023-03-18T07:43:46.827Z,3.10
2023-03-18T07:46:13.436Z,1.00
2023-03-18T07:48:40.127Z,1.10
2023-03-18T07:51:06.830Z,1.00
2023-03-18T07:53:33.862Z,1.00
2023-03-18T07:56:00.765Z,1.00
2023-03-18T07:58:27.365Z,1.00
2023-03-18T08:00:54.227Z,1.00
2023-03-18T08:03:20.874Z,1.00
2023-03-18T08:05:47.589Z,1.00
2023-03-18T08:08:14.142Z,1.00
2023-03-18T08:10:40.695Z,1.00
2023-03-18T08:13:07.332Z,1.00
2023-03-18T08:15:34.554Z,1.00
2023-03-18T08:18:01.704Z,1.00
2023-03-18T08:20:28.736Z,1.00
2023-03-18T08:22:56.050Z,1.00
2023-03-18T08:25:23.528Z,1.00
2023-03-18T08:27:50.646Z,1.00
2023-03-18T08:30:17.415Z,1.00
2023-03-18T08:32:44.329Z,1.00
2023-03-18T08:35:12.666Z,1.00
2023-03-18T08:37:39.281Z,1.00
2023-03-18T08:40:06.633Z,1.00
2023-03-18T08:42:33.185Z,1.00
2023-03-18T08:44:59.716Z,1.00
2023-03-18T08:47:27.419Z,1.00
2023-03-18T08:49:53.958Z,1.00
2023-03-18T08:52:20.582Z,1.00
2023-03-18T08:54:47.781Z,1.00
2023-03-18T08:57:14.385Z,1.00
2023-03-18T08:59:40.947Z,1.00
2023-03-18T09:02:08.221Z,1.00
2023-03-18T09:04:34.788Z,1.00
2023-03-18T09:07:01.489Z,1.00
2023-03-18T09:09:42.749Z,1.00
2023-03-18T09:12:11.893Z,1.00
2023-03-18T09:14:38.696Z,1.00
2023-03-18T09:17:06.333Z,1.00
2023-03-18T09:19:32.934Z,1.00
2023-03-18T09:21:59.505Z,1.00
2023-03-18T09:24:26.140Z,1.00
2023-03-18T09:26:52.888Z,1.00
2023-03-18T09:29:19.498Z,1.00
2023-03-18T09:31:46.058Z,1.00
2023-03-18T09:34:13.599Z,1.00
2023-03-18T09:36:41.110Z,1.00
2023-03-18T09:39:08.921Z,1.00
2023-03-18T09:41:41.348Z,1.00
2023-03-18T09:44:17.724Z,1.00
2023-03-18T09:46:53.354Z,1.00
2023-03-18T09:49:25.892Z,1.00
2023-03-18T09:52:11.393Z,1.00
2023-03-18T09:54:41.307Z,1.00
2023-03-18T09:57:29.626Z,1.00
2023-03-18T10:00:05.377Z,1.00
2023-03-18T10:02:42.354Z,1.00
2023-03-18T10:05:17.999Z,1.00
2023-03-18T10:07:47.380Z,1.00
2023-03-18T10:10:23.868Z,1.00
2023-03-18T10:13:10.730Z,1.00
2023-03-18T10:15:39.788Z,1.00
2023-03-18T10:18:17.023Z,1.00
2023-03-18T10:20:46.489Z,1.00
2023-03-18T10:23:37.413Z,1.00
2023-03-18T10:26:24.310Z,1.00
2023-03-18T10:28:54.479Z,1.00
2023-03-18T10:31:36.502Z,1.00
2023-03-18T10:34:11.490Z,1.00
2023-03-18T10:36:44.241Z,1.00
2023-03-18T10:39:16.381Z,1.00
2023-03-18T10:41:43.958Z,1.00
2023-03-18T10:44:16.716Z,1.00
2023-03-18T10:46:44.214Z,1.00
2023-03-18T10:49:20.820Z,1.00
2023-03-18T10:51:51.003Z,1.00
2023-03-18T10:54:27.062Z,1.00
2023-03-18T10:56:54.044Z,1.00
2023-03-18T10:59:21.611Z,1.00
2023-03-18T11:01:51.194Z,1.00
2023-03-18T11:04:21.661Z,1.00
2023-03-18T11:06:50.206Z,1.00
2023-03-18T11:09:22.013Z,1.00
2023-03-18T11:11:49.705Z,1.00
2023-03-18T11:14:22.266Z,1.00
2023-03-18T11:16:51.855Z,1.00
2023-03-18T11:19:21.452Z,1.00
2023-03-18T11:21:49.002Z,1.00
2023-03-18T11:24:36.404Z,1.00
2023-03-18T11:27:03.571Z,1.00
2023-03-18T11:29:33.053Z,1.00
2023-03-18T11:32:01.350Z,1.00
2023-03-18T11:34:29.224Z,1.00
2023-03-18T11:36:59.143Z,1.00
2023-03-18T11:39:27.329Z,1.00
2023-03-18T11:41:54.248Z,1.00
2023-03-18T11:44:25.912Z,1.00
2023-03-18T11:46:59.879Z,1.00
2023-03-18T11:49:28.221Z,1.00
2023-03-18T11:52:08.353Z,1.00
2023-03-18T11:54:54.867Z,1.00
2023-03-18T11:57:40.470Z,1.00
2023-03-18T12:00:07.160Z,1.00
2023-03-18T12:02:46.248Z,1.00
2023-03-18T12:05:12.826Z,1.00
2023-03-18T12:07:39.354Z,1.00
2023-03-18T12:10:19.706Z,1.00
2023-03-18T12:12:46.634Z,1.00
2023-03-18T12:15:33.382Z,1.00
2023-03-18T12:18:16.536Z,1.00
2023-03-18T12:20:50.712Z,1.00
2023-03-18T12:23:35.942Z,1.00
2023-03-18T12:26:05.228Z,1.00
2023-03-18T12:28:34.546Z,1.00
2023-03-18T12:31:10.394Z,1.00
2023-03-18T12:33:37.078Z,1.00
2023-03-18T12:36:03.915Z,1.00
2023-03-18T12:38:44.395Z,1.00
2023-03-18T12:41:20.419Z,1.00
2023-03-18T12:44:06.023Z,1.00
2023-03-18T12:46:37.801Z,1.00
2023-03-18T12:49:10.272Z,1.00
2023-03-18T12:51:51.126Z,1.00
2023-03-18T12:54:23.851Z,1.00
2023-03-18T12:56:53.469Z,1.00
2023-03-18T12:59:23.313Z,1.00
2023-03-18T13:02:00.513Z,1.00
2023-03-18T13:04:29.895Z,1.00
2023-03-18T13:07:15.687Z,1.00
2023-03-18T13:09:42.810Z,1.00
2023-03-18T13:12:11.507Z,1.00
2023-03-18T13:14:57.256Z,1.00
2023-03-18T13:17:29.654Z,1.00
2023-03-18T13:20:00.249Z,1.00
2023-03-18T13:22:42.249Z,1.00
2023-03-18T13:25:23.713Z,1.00
2023-03-18T13:27:56.412Z,1.00
2023-03-18T13:30:41.841Z,1.00
2023-03-18T13:33:17.532Z,1.00
2023-03-18T13:35:50.803Z,1.00
2023-03-18T13:38:36.207Z,1.00
2023-03-18T13:41:28.687Z,1.00
2023-03-18T13:43:56.411Z,1.00
2023-03-18T13:46:24.411Z,1.00
2023-03-18T13:48:58.931Z,1.00
2023-03-18T13:51:25.524Z,1.00
2023-03-18T13:53:53.710Z,1.00
2023-03-18T13:56:29.988Z,1.00
2023-03-18T13:58:56.582Z,1.00
2023-03-18T14:01:29.320Z,1.00
2023-03-18T14:04:01.875Z,1.00
2023-03-18T14:06:34.352Z,1.00
2023-03-18T14:09:21.031Z,1.00
2023-03-18T14:11:49.823Z,1.00
2023-03-18T14:14:52.830Z,1.00
2023-03-18T14:17:42.367Z,1.00
2023-03-18T14:20:14.826Z,1.00
2023-03-18T14:22:42.464Z,1.00
2023-03-18T14:25:18.188Z,1.00
2023-03-18T14:27:44.769Z,1.00
2023-03-18T14:30:26.630Z,1.00
2023-03-18T14:32:57.509Z,1.00
2023-03-18T14:35:28.633Z,1.00
2023-03-18T14:38:13.946Z,1.00
2023-03-18T14:40:45.913Z,1.00
2023-03-18T14:43:23.884Z,1.00
2023-03-18T14:45:52.092Z,1.00
2023-03-18T14:48:20.529Z,1.00
2023-03-18T14:50:50.901Z,1.00
2023-03-18T14:53:17.495Z,1.00
2023-03-18T14:55:45.034Z,1.00
2023-03-18T14:58:14.579Z,1.00
2023-03-18T15:00:41.780Z,1.00
2023-03-18T15:03:13.160Z,1.00
2023-03-18T15:05:41.472Z,1.00
2023-03-18T15:08:19.751Z,1.00
2023-03-18T15:10:47.711Z,1.00
2023-03-18T15:13:15.372Z,1.00
2023-03-18T15:15:42.692Z,1.00
2023-03-18T15:18:28.492Z,1.00
2023-03-18T15:21:03.678Z,1.00
2023-03-18T15:23:31.955Z,1.00
2023-03-18T15:25:58.491Z,1.00
2023-03-18T15:28:27.710Z,1.00
2023-03-18T15:30:55.957Z,1.00
2023-03-18T15:33:24.014Z,1.00
2023-03-18T15:35:54.975Z,1.00
2023-03-18T15:38:25.731Z,1.00
2023-03-18T15:40:54.767Z,1.00
2023-03-18T15:43:33.036Z,1.00
2023-03-18T15:46:00.995Z,1.00
2023-03-18T15:48:35.000Z,1.00
2023-03-18T15:51:04.218Z,1.00
2023-03-18T15:53:39.182Z,1.00
2023-03-18T15:56:38.366Z,1.00
2023-03-18T15:59:07.105Z,1.00
2023-03-18T16:01:35.073Z,1.00
2023-03-18T16:04:02.464Z,1.00
2023-03-18T16:06:29.061Z,1.00
2023-03-18T16:08:55.656Z,1.00
2023-03-18T16:11:24.161Z,1.00
2023-03-18T16:13:51.522Z,1.00
2023-03-18T16:16:24.801Z,1.00
2023-03-18T16:18:52.691Z,1.00
2023-03-18T16:21:20.658Z,1.00
2023-03-18T16:23:47.936Z,1.00
2023-03-18T16:26:16.167Z,1.00
2023-03-18T16:28:44.545Z,1.00
2023-03-18T16:31:12.784Z,1.00
2023-03-18T16:33:41.436Z,1.00
2023-03-18T16:36:16.557Z,1.00
2023-03-18T16:38:45.812Z,1.00
2023-03-18T16:41:12.348Z,1.00
2023-03-18T16:43:38.928Z,1.00
2023-03-18T16:46:06.015Z,1.00
2023-03-18T16:48:32.933Z,1.00
2023-03-18T16:51:02.458Z,1.00
2023-03-18T16:53:30.006Z,1.00
2023-03-18T16:56:01.278Z,1.00
2023-03-18T16:58:35.624Z,1.00
2023-03-18T17:01:04.633Z,1.00
2023-03-18T17:03:31.593Z,1.00
2023-03-18T17:05:58.322Z,1.00
2023-03-18T17:08:24.972Z,1.00
2023-03-18T17:10:53.849Z,1.00
2023-03-18T17:13:23.089Z,1.00
2023-03-18T17:15:50.432Z,1.00
2023-03-18T17:18:18.423Z,1.00
2023-03-18T17:20:45.696Z,1.00
2023-03-18T17:23:19.545Z,1.00
2023-03-18T17:26:05.012Z,1.00
2023-03-18T17:28:32.370Z,1.00
2023-03-18T17:30:59.928Z,1.00
2023-03-18T17:33:28.973Z,1.00
2023-03-18T17:35:56.432Z,1.00
2023-03-18T17:38:23.017Z,1.00
2023-03-18T17:40:50.460Z,1.00
2023-03-18T17:43:19.080Z,1.00
2023-03-18T17:45:46.063Z,1.00
2023-03-18T17:48:15.409Z,1.00
2023-03-18T17:50:44.173Z,1.00
2023-03-18T17:53:20.696Z,1.00
2023-03-18T17:55:47.264Z,1.00
2023-03-18T17:58:18.064Z,1.00
2023-03-18T18:00:45.121Z,1.00
2023-03-18T18:03:30.737Z,1.00
2023-03-18T18:05:58.445Z,1.00
2023-03-18T18:08:25.598Z,1.00
2023-03-18T18:10:53.121Z,1.00
2023-03-18T18:13:21.701Z,1.00
2023-03-18T18:15:49.288Z,1.00
2023-03-18T18:18:23.018Z,1.00
2023-03-18T18:20:52.356Z,1.00
2023-03-18T18:23:23.707Z,1.00
2023-03-18T18:25:50.592Z,1.00
2023-03-18T18:28:19.598Z,1.00
2023-03-18T18:30:46.431Z,1.00
2023-03-18T18:33:13.238Z,1.00
2023-03-18T18:35:39.858Z,1.00
2023-03-18T18:38:06.647Z,1.00
2023-03-18T18:40:33.366Z,1.00
2023-03-18T18:43:00.000Z,1.00
2023-03-18T18:45:28.120Z,1.00
2023-03-18T18:47:57.452Z,1.00
2023-03-18T18:50:27.479Z,1.00
2023-03-18T18:52:54.754Z,1.00
2023-03-18T18:55:21.529Z,1.00
2023-03-18T18:57:48.326Z,1.00
2023-03-18T19:00:17.339Z,1.00
2023-03-18T19:02:46.089Z,1.00
2023-03-18T19:05:12.931Z,1.00
2023-03-18T19:07:40.148Z,1.00
2023-03-18T19:10:06.998Z,1.00
2023-03-18T19:12:33.605Z,1.00
2023-03-18T19:15:00.196Z,1.00
2023-03-18T19:17:26.741Z,1.00
2023-03-18T19:19:53.451Z,1.00
2023-03-18T19:22:21.245Z,1.00
2023-03-18T19:24:51.198Z,1.00
2023-03-18T19:27:21.180Z,1.00
2023-03-18T19:29:47.998Z,1.00
2023-03-18T19:32:15.685Z,1.00
2023-03-18T19:34:42.232Z,1.00
2023-03-18T19:37:11.117Z,1.00
2023-03-18T19:39:38.130Z,1.00
2023-03-18T19:42:04.739Z,1.00
2023-03-18T19:44:31.479Z,1.00
2023-03-18T19:46:59.291Z,1.00
2023-03-18T19:49:27.305Z,1.00
2023-03-18T19:51:54.577Z,1.00
2023-03-18T19:54:23.654Z,1.00
2023-03-18T19:56:51.237Z,1.00
2023-03-18T19:59:22.850Z,1.00
2023-03-18T20:01:50.436Z,1.00
2023-03-18T20:04:18.954Z,1.00
2023-03-18T20:06:47.465Z,1.00
2023-03-18T20:09:14.844Z,1.00
2023-03-18T20:11:41.458Z,1.00
2023-03-18T20:14:28.296Z,1.00
2023-03-18T20:16:55.447Z,1.00
2023-03-18T20:19:22.029Z,1.00
2023-03-18T20:21:48.791Z,1.00
2023-03-18T20:24:16.950Z,1.00
2023-03-18T20:26:43.549Z,1.00
2023-03-18T20:29:15.968Z,1.00
2023-03-18T20:31:43.248Z,1.00
2023-03-18T20:34:10.634Z,2.40
2023-03-18T20:36:37.912Z,2.40
2023-03-18T20:39:05.757Z,2.40
2023-03-18T20:41:36.749Z,3.50
2023-03-18T20:44:04.285Z,4.80
2023-03-18T20:46:31.218Z,6.10
2023-03-18T20:48:57.893Z,7.00
2023-03-18T20:51:31.141Z,7.00
2023-03-18T20:53:58.015Z,7.90
2023-03-18T20:56:24.957Z,8.70
2023-03-18T20:58:51.645Z,9.00
2023-03-18T21:01:18.383Z,11.20
2023-03-18T21:03:45.341Z,11.50
2023-03-18T21:06:13.576Z,11.50
2023-03-18T21:08:40.218Z,11.40
2023-03-18T21:11:13.148Z,10.60
2023-03-18T21:13:39.677Z,11.40
2023-03-18T21:16:07.629Z,10.30
2023-03-18T21:18:35.646Z,9.70
2023-03-18T21:21:02.334Z,11.40
2023-03-18T21:23:29.765Z,11.40
2023-03-18T21:25:56.556Z,11.30
2023-03-18T21:28:25.441Z,13.70
2023-03-18T21:30:52.985Z,11.40
2023-03-18T21:33:19.636Z,12.40
2023-03-18T21:35:46.266Z,14.60
2023-03-18T21:38:12.969Z,15.60
2023-03-18T21:40:39.732Z,15.90
2023-03-18T21:43:27.254Z,16.10
2023-03-18T21:45:54.151Z,17.00
2023-03-18T21:48:21.307Z,18.30
2023-03-18T21:50:48.103Z,18.80
2023-03-18T21:53:16.213Z,18.70
2023-03-18T21:55:43.092Z,19.40
2023-03-18T21:58:17.037Z,20.10
2023-03-18T22:00:44.816Z,20.10
2023-03-18T22:03:15.634Z,20.10
2023-03-18T22:05:42.674Z,20.00
2023-03-18T22:08:09.302Z,20.00
2023-03-18T22:10:36.310Z,21.80
2023-03-18T22:13:10.113Z,22.20
2023-03-18T22:15:37.832Z,23.20
2023-03-18T22:18:05.360Z,24.30
2023-03-18T22:20:32.880Z,24.90
2023-03-18T22:22:59.470Z,25.90
2023-03-18T22:25:28.242Z,26.50
2023-03-18T22:27:54.826Z,26.50
2023-03-18T22:30:21.553Z,27.10
2023-03-18T22:32:48.261Z,28.40
2023-03-18T22:35:18.960Z,28.50
2023-03-18T22:37:45.826Z,28.40
2023-03-18T22:40:32.745Z,28.50
2023-03-18T22:43:00.454Z,29.30
2023-03-18T22:45:32.179Z,30.00
2023-03-18T22:48:01.965Z,30.00
2023-03-18T22:50:30.230Z,30.70
2023-03-18T22:53:05.535Z,31.10
2023-03-18T22:55:35.241Z,31.20
2023-03-18T22:58:02.006Z,32.10
2023-03-18T23:00:34.421Z,33.50
2023-03-18T23:03:01.550Z,33.60
2023-03-18T23:05:28.119Z,34.10
2023-03-18T23:07:55.096Z,34.20
2023-03-18T23:10:21.955Z,34.30
2023-03-18T23:12:48.550Z,35.20
2023-03-18T23:15:20.709Z,35.90
2023-03-18T23:17:47.326Z,36.80
2023-03-18T23:20:14.923Z,37.40
2023-03-18T23:22:41.810Z,38.30
2023-03-18T23:25:12.141Z,39.40
2023-03-18T23:27:38.700Z,39.40
2023-03-18T23:30:05.801Z,39.30
2023-03-18T23:32:33.508Z,39.40
2023-03-18T23:35:00.179Z,39.90
2023-03-18T23:37:26.770Z,42.70
2023-03-18T23:39:53.362Z,43.70
2023-03-18T23:42:20.756Z,44.20
2023-03-18T23:44:47.733Z,46.50
2023-03-18T23:47:14.974Z,47.00
2023-03-18T23:49:41.640Z,47.20
2023-03-18T23:52:09.524Z,48.10
2023-03-18T23:54:36.521Z,48.30
2023-03-18T23:57:03.787Z,48.60
2023-03-18T23:59:30.704Z,48.10
